createdAt,value
2018-05-25T00:00:25.789Z,1.25
2018-05-25T00:02:54.705Z,1.48
2018-05-25T00:05:22.853Z,1.75
2018-05-25T00:07:50.980Z,1.58
2018-05-25T00:10:19.102Z,1.60
2018-05-25T00:12:47.226Z,1.90
2018-05-25T00:15:15.371Z,1.60
2018-05-25T00:17:43.516Z,1.62
2018-05-25T00:20:11.625Z,1.60
2018-05-25T00:22:40.514Z,1.50
2018-05-25T00:25:08.643Z,1.70
2018-05-25T00:27:36.785Z,1.80
2018-05-25T00:30:05.681Z,1.50
2018-05-25T00:32:34.571Z,1.52
2018-05-25T00:35:03.477Z,1.60
2018-05-25T00:37:32.373Z,1.77
2018-05-25T00:40:01.365Z,1.67
2018-05-25T00:42:30.282Z,2.87
2018-05-25T00:44:58.435Z,3.35
2018-05-25T00:47:27.323Z,4.28
2018-05-25T00:49:56.228Z,4.90
2018-05-25T00:52:25.123Z,5.20
2018-05-25T00:55:12.132Z,4.65
2018-05-25T00:57:41.031Z,4.95
2018-05-25T01:00:09.897Z,3.83
2018-05-25T01:02:38.025Z,2.80
2018-05-25T01:05:06.165Z,3.42
2018-05-25T01:07:35.081Z,3.45
2018-05-25T01:10:03.208Z,4.12
2018-05-25T01:12:31.332Z,3.00
2018-05-25T01:14:59.495Z,3.85
2018-05-25T01:17:28.384Z,3.78
2018-05-25T01:19:56.536Z,3.05
2018-05-25T01:22:24.686Z,3.67
2018-05-25T01:24:52.829Z,4.32
2018-05-25T01:27:21.732Z,3.62
2018-05-25T01:29:50.611Z,3.75
2018-05-25T01:32:19.547Z,4.12
2018-05-25T01:34:47.652Z,3.90
2018-05-25T01:37:15.786Z,4.05
2018-05-25T01:39:43.939Z,3.78
2018-05-25T01:42:12.830Z,4.12
2018-05-25T01:44:40.981Z,4.05
2018-05-25T01:47:09.137Z,3.95
2018-05-25T01:49:37.259Z,3.42
2018-05-25T01:52:05.431Z,3.08
2018-05-25T01:54:33.541Z,3.80
2018-05-25T01:57:02.422Z,4.07
2018-05-25T01:59:31.331Z,3.55
2018-05-25T02:01:59.452Z,2.75
2018-05-25T02:04:27.591Z,3.12
2018-05-25T02:06:55.728Z,3.03
2018-05-25T02:09:23.900Z,3.00
2018-05-25T02:11:52.037Z,2.92
2018-05-25T02:14:20.166Z,3.00
2018-05-25T02:16:48.308Z,2.85
2018-05-25T02:19:16.446Z,3.20
2018-05-25T02:21:45.341Z,3.15
2018-05-25T02:24:14.227Z,3.05
2018-05-25T02:26:43.153Z,2.70
2018-05-25T02:29:11.276Z,2.70
2018-05-25T02:31:39.438Z,2.55
2018-05-25T02:34:07.594Z,2.50
2018-05-25T02:36:35.726Z,2.70
2018-05-25T02:39:04.630Z,3.10
2018-05-25T02:41:33.529Z,2.10
2018-05-25T02:44:02.423Z,2.55
2018-05-25T02:46:31.306Z,2.42
2018-05-25T02:48:59.425Z,2.10
2018-05-25T02:51:27.558Z,1.90
2018-05-25T02:53:55.738Z,1.85
2018-05-25T02:56:23.878Z,2.08
2018-05-25T02:58:52.001Z,1.80
2018-05-25T03:01:20.922Z,2.20
2018-05-25T03:03:49.053Z,2.20
2018-05-25T03:06:17.170Z,2.28
2018-05-25T03:08:45.296Z,2.12
2018-05-25T03:11:13.440Z,2.03
2018-05-25T03:13:41.543Z,2.00
2018-05-25T03:16:09.685Z,2.25
2018-05-25T03:18:37.805Z,1.95
2018-05-25T03:21:05.947Z,2.17
2018-05-25T03:23:34.088Z,2.00
2018-05-25T03:26:02.235Z,2.22
2018-05-25T03:28:30.343Z,2.17
2018-05-25T03:30:59.228Z,2.72
2018-05-25T03:33:27.360Z,2.25
2018-05-25T03:35:55.510Z,1.98
2018-05-25T03:38:24.396Z,2.17
2018-05-25T03:40:53.332Z,2.75
2018-05-25T03:43:21.446Z,2.55
2018-05-25T03:45:49.593Z,2.30
2018-05-25T03:48:17.731Z,1.92
2018-05-25T03:50:46.618Z,2.42
2018-05-25T03:53:15.530Z,2.20
2018-05-25T03:55:43.656Z,2.50
2018-05-25T03:58:11.783Z,2.20
2018-05-25T04:03:48.800Z,2.42
2018-05-25T04:06:16.929Z,2.03
2018-05-25T04:08:45.937Z,2.33
2018-05-25T04:11:14.833Z,2.30
2018-05-25T04:13:43.038Z,2.70
2018-05-25T04:16:11.176Z,2.15
2018-05-25T04:18:40.099Z,2.37
2018-05-25T04:21:08.242Z,2.55
2018-05-25T04:23:36.394Z,2.47
2018-05-25T04:26:04.541Z,1.98
2018-05-25T04:28:32.650Z,2.30
2018-05-25T04:31:00.793Z,2.30
2018-05-25T04:33:28.911Z,1.95
2018-05-25T04:35:57.035Z,2.97
2018-05-25T04:38:25.162Z,2.55
2018-05-25T04:40:53.317Z,2.80
2018-05-25T04:43:21.443Z,3.03
2018-05-25T04:45:50.521Z,2.85
2018-05-25T04:48:18.658Z,2.55
2018-05-25T04:50:46.816Z,2.87
2018-05-25T04:53:20.538Z,2.58
2018-05-25T04:55:48.690Z,2.87
2018-05-25T04:58:17.576Z,3.47
2018-05-25T05:00:45.688Z,2.97
2018-05-25T05:03:13.868Z,2.90
2018-05-25T05:05:41.999Z,3.30
2018-05-25T05:08:10.139Z,3.00
2018-05-25T05:10:38.273Z,2.62
2018-05-25T05:13:07.162Z,3.10
2018-05-25T05:15:36.049Z,2.90
2018-05-25T05:18:05.009Z,2.72
2018-05-25T05:20:33.120Z,3.15
2018-05-25T05:23:01.260Z,3.20
2018-05-25T05:25:29.373Z,3.45
2018-05-25T05:27:57.505Z,3.25
2018-05-25T05:30:25.672Z,3.12
2018-05-25T05:32:53.793Z,3.42
2018-05-25T05:35:21.917Z,3.20
2018-05-25T05:37:50.030Z,3.65
2018-05-25T05:40:18.160Z,3.22
2018-05-25T05:42:47.062Z,3.20
2018-05-25T05:45:15.938Z,3.67
2018-05-25T05:47:44.068Z,3.10
2018-05-25T05:50:12.189Z,2.78
2018-05-25T05:52:40.313Z,3.30
2018-05-25T05:55:08.414Z,2.78
2018-05-25T05:57:36.533Z,3.00
2018-05-25T06:00:05.425Z,2.90
2018-05-25T06:02:34.337Z,3.22
2018-05-25T06:05:03.416Z,2.92
2018-05-25T06:07:32.294Z,3.50
2018-05-25T06:10:00.426Z,3.12
2018-05-25T06:12:28.633Z,2.85
2018-05-25T06:14:56.672Z,3.05
2018-05-25T06:17:24.791Z,2.55
2018-05-25T06:19:52.908Z,3.03
2018-05-25T06:22:21.783Z,2.67
2018-05-25T06:24:50.678Z,2.90
2018-05-25T06:27:19.570Z,3.15
2018-05-25T06:29:47.724Z,2.97
2018-05-25T06:32:15.838Z,3.22
2018-05-25T06:34:44.762Z,2.47
2018-05-25T06:37:13.722Z,2.25
2018-05-25T06:39:41.855Z,2.50
2018-05-25T06:42:10.017Z,2.60
2018-05-25T06:44:38.142Z,2.62
2018-05-25T06:47:06.329Z,2.20
2018-05-25T06:49:35.215Z,2.30
2018-05-25T06:52:03.326Z,2.50
2018-05-25T06:54:31.467Z,2.72
2018-05-25T06:56:59.636Z,2.78
2018-05-25T06:59:27.784Z,2.80
2018-05-25T07:01:55.913Z,3.03
2018-05-25T07:04:24.052Z,3.28
2018-05-25T07:06:52.169Z,3.08
2018-05-25T07:09:21.086Z,3.22
2018-05-25T07:11:49.981Z,3.42
2018-05-25T07:14:18.887Z,3.28
2018-05-25T07:16:47.006Z,3.50
2018-05-25T07:19:15.144Z,2.97
2018-05-25T07:21:43.285Z,3.30
2018-05-25T07:24:11.687Z,3.22
2018-05-25T07:26:40.582Z,3.28
2018-05-25T07:29:09.461Z,3.08
2018-05-25T07:31:38.360Z,3.40
2018-05-25T07:34:07.247Z,3.00
2018-05-25T07:36:35.371Z,3.25
2018-05-25T07:39:03.477Z,3.03
2018-05-25T07:41:31.592Z,3.35
2018-05-25T07:44:00.489Z,4.10
2018-05-25T07:46:29.364Z,4.10
2018-05-25T07:48:57.503Z,4.22
2018-05-25T07:51:25.609Z,3.80
2018-05-25T07:53:53.780Z,3.25
2018-05-25T07:56:21.906Z,3.00
2018-05-25T07:58:50.817Z,3.55
2018-05-25T08:01:18.936Z,3.08
2018-05-25T08:03:47.065Z,3.58
2018-05-25T08:06:15.203Z,3.08
2018-05-25T08:08:43.335Z,3.00
2018-05-25T08:11:11.459Z,3.12
2018-05-25T08:13:39.574Z,2.87
2018-05-25T08:16:07.718Z,2.40
2018-05-25T08:18:35.855Z,3.20
2018-05-25T08:21:03.982Z,3.40
2018-05-25T08:23:32.857Z,3.08
2018-05-25T08:26:01.786Z,3.33
2018-05-25T08:28:29.960Z,2.75
2018-05-25T08:30:58.845Z,2.58
2018-05-25T08:33:27.747Z,2.70
2018-05-25T08:35:56.633Z,2.60
2018-05-25T08:38:25.517Z,2.62
2018-05-25T08:40:53.631Z,2.10
2018-05-25T08:43:21.805Z,2.95
2018-05-25T08:45:50.660Z,2.40
2018-05-25T08:48:18.786Z,2.65
2018-05-25T08:50:46.909Z,2.67
2018-05-25T08:53:15.149Z,3.05
2018-05-25T08:55:43.267Z,3.33
2018-05-25T08:58:11.524Z,3.83
2018-05-25T09:00:39.622Z,3.08
2018-05-25T09:03:07.744Z,3.05
2018-05-25T09:05:35.872Z,3.30
2018-05-25T09:08:05.034Z,3.25
2018-05-25T09:10:33.176Z,3.28
2018-05-25T09:13:02.076Z,2.83
2018-05-25T09:15:30.968Z,2.40
2018-05-25T09:17:59.107Z,1.95
2018-05-25T09:20:27.234Z,1.87
2018-05-25T09:22:56.139Z,2.12
2018-05-25T09:25:24.261Z,2.10
2018-05-25T09:27:52.394Z,2.25
2018-05-25T09:30:21.267Z,2.28
2018-05-25T09:32:50.169Z,1.85
2018-05-25T09:35:19.078Z,2.10
2018-05-25T09:37:47.210Z,1.77
2018-05-25T09:40:15.329Z,2.22
2018-05-25T09:42:44.217Z,1.62
2018-05-25T09:45:13.097Z,1.77
2018-05-25T09:47:41.986Z,2.25
2018-05-25T09:50:10.119Z,1.50
2018-05-25T09:52:38.239Z,1.90
2018-05-25T09:55:06.369Z,2.00
2018-05-25T09:57:34.501Z,2.10
2018-05-25T10:00:02.629Z,1.87
2018-05-25T10:02:30.753Z,2.00
2018-05-25T10:04:58.866Z,1.62
2018-05-25T10:07:27.007Z,2.15
2018-05-25T10:09:55.134Z,1.98
2018-05-25T10:12:23.268Z,2.30
2018-05-25T10:14:52.164Z,1.62
2018-05-25T10:17:21.054Z,1.95
2018-05-25T10:19:49.935Z,2.22
2018-05-25T10:22:18.055Z,2.08
2018-05-25T10:24:46.970Z,1.62
2018-05-25T10:27:15.105Z,1.62
2018-05-25T10:29:44.012Z,2.08
2018-05-25T10:32:12.886Z,1.95
2018-05-25T10:34:41.769Z,2.12
2018-05-25T10:37:09.931Z,1.75
2018-05-25T10:39:38.058Z,1.90
2018-05-25T10:42:06.204Z,2.08
2018-05-25T10:44:34.336Z,1.83
2018-05-25T10:47:02.482Z,2.03
2018-05-25T10:49:31.377Z,1.52
2018-05-25T10:52:00.270Z,1.90
2018-05-25T10:54:29.204Z,1.70
2018-05-25T10:56:57.349Z,1.92
2018-05-25T10:59:26.255Z,1.50
2018-05-25T11:01:54.414Z,2.05
2018-05-25T11:04:23.303Z,2.00
2018-05-25T11:06:52.230Z,1.90
2018-05-25T11:09:20.347Z,1.62
2018-05-25T11:11:48.464Z,1.73
2018-05-25T11:14:17.455Z,2.10
2018-05-25T11:16:46.349Z,1.92
2018-05-25T11:19:15.287Z,1.50
2018-05-25T11:21:43.397Z,1.60
2018-05-25T11:24:11.562Z,1.50
2018-05-25T11:26:39.691Z,1.50
2018-05-25T11:29:08.616Z,1.90
2018-05-25T11:31:36.736Z,1.58
2018-05-25T11:34:05.773Z,1.55
2018-05-25T11:36:33.942Z,1.60
2018-05-25T11:39:02.862Z,1.60
2018-05-25T11:41:31.010Z,1.80
2018-05-25T11:43:59.892Z,1.80
2018-05-25T11:46:28.034Z,1.27
2018-05-25T11:48:56.128Z,1.90
2018-05-25T11:51:24.250Z,1.52
2018-05-25T11:53:53.146Z,1.67
2018-05-25T11:56:21.261Z,1.62
2018-05-25T11:58:49.387Z,1.50
2018-05-25T12:01:18.269Z,1.42
2018-05-25T12:03:46.390Z,1.48
2018-05-25T12:06:14.512Z,1.75
2018-05-25T12:08:42.664Z,1.80
2018-05-25T12:11:10.786Z,1.80
2018-05-25T12:13:39.656Z,1.83
2018-05-25T12:16:07.785Z,1.67
2018-05-25T12:18:35.893Z,1.80
2018-05-25T12:21:04.028Z,1.70
2018-05-25T12:23:32.908Z,1.70
2018-05-25T12:26:01.891Z,2.00
2018-05-25T12:28:30.036Z,1.25
2018-05-25T12:30:58.154Z,1.30
2018-05-25T12:33:27.044Z,2.10
2018-05-25T12:35:55.929Z,1.70
2018-05-25T12:38:24.069Z,1.52
2018-05-25T12:40:52.173Z,1.80
2018-05-25T12:43:20.311Z,1.80
2018-05-25T12:45:48.434Z,1.48
2018-05-25T12:48:16.621Z,1.90
2018-05-25T12:50:45.522Z,1.83
2018-05-25T12:53:13.644Z,1.87
2018-05-25T12:55:41.771Z,2.00
2018-05-25T12:58:09.886Z,1.77
2018-05-25T13:00:38.131Z,1.75
2018-05-25T13:03:06.223Z,1.70
2018-05-25T13:05:35.107Z,1.90
2018-05-25T13:08:04.030Z,2.10
2018-05-25T13:10:32.142Z,1.60
2018-05-25T13:13:00.243Z,1.80
2018-05-25T13:15:28.375Z,1.70
2018-05-25T13:17:56.491Z,1.58
2018-05-25T13:20:24.615Z,1.80
2018-05-25T13:22:52.720Z,1.67
2018-05-25T13:25:20.838Z,1.60
2018-05-25T13:27:48.955Z,1.48
2018-05-25T13:30:17.118Z,1.48
2018-05-25T13:32:46.025Z,1.70
2018-05-25T13:35:14.166Z,1.80
2018-05-25T13:37:42.456Z,1.90
2018-05-25T13:40:11.349Z,1.92
2018-05-25T13:42:40.243Z,1.80
2018-05-25T13:45:09.134Z,1.87
2018-05-25T13:47:37.258Z,2.00
2018-05-25T13:50:05.374Z,2.10
2018-05-25T13:52:33.535Z,1.85
2018-05-25T13:55:01.639Z,2.20
2018-05-25T13:57:29.773Z,2.10
2018-05-25T13:59:57.887Z,1.95
2018-05-25T14:02:26.046Z,1.50
2018-05-25T14:04:54.175Z,1.90
2018-05-25T14:07:23.054Z,2.10
2018-05-25T14:09:51.176Z,2.17
2018-05-25T14:12:19.279Z,1.83
2018-05-25T14:14:47.429Z,2.47
2018-05-25T14:17:15.624Z,1.77
2018-05-25T14:19:43.734Z,1.55
2018-05-25T14:22:11.889Z,1.83
2018-05-25T14:24:40.000Z,1.73
2018-05-25T14:27:08.914Z,1.70
2018-05-25T14:29:37.860Z,1.77
2018-05-25T14:32:05.995Z,1.85
2018-05-25T14:34:34.167Z,1.40
2018-05-25T14:37:02.298Z,1.10
2018-05-25T14:39:30.401Z,2.05
2018-05-25T14:41:59.775Z,1.90
2018-05-25T14:44:27.904Z,1.37
2018-05-25T14:46:56.813Z,1.40
2018-05-25T14:49:24.935Z,1.67
2018-05-25T14:51:53.044Z,1.30
2018-05-25T14:54:21.983Z,1.25
2018-05-25T14:56:50.114Z,1.45
2018-05-25T14:59:19.020Z,1.75
2018-05-25T15:01:47.144Z,1.23
2018-05-25T15:04:15.315Z,1.40
2018-05-25T15:06:43.521Z,1.20
2018-05-25T15:09:11.601Z,1.50
2018-05-25T15:11:39.745Z,1.45
2018-05-25T15:14:07.909Z,1.35
2018-05-25T15:16:36.112Z,1.80
2018-05-25T15:19:04.259Z,1.37
2018-05-25T15:21:32.413Z,1.50
2018-05-25T15:24:01.299Z,1.40
2018-05-25T15:26:30.199Z,1.58
2018-05-25T15:28:59.159Z,1.10
2018-05-25T15:31:27.309Z,1.50
2018-05-25T15:33:55.437Z,1.30
2018-05-25T15:36:23.663Z,1.65
2018-05-25T15:38:51.787Z,1.48
2018-05-25T15:41:19.978Z,1.30
2018-05-25T15:43:48.095Z,1.00
2018-05-25T15:46:16.399Z,0.90
2018-05-25T15:48:44.553Z,1.10
2018-05-25T15:51:12.666Z,1.12
2018-05-25T15:53:41.014Z,1.10
2018-05-25T15:56:09.194Z,1.20
2018-05-25T15:58:37.359Z,1.40
2018-05-25T16:01:05.674Z,1.02
2018-05-25T16:03:33.913Z,1.10
2018-05-25T16:06:02.825Z,1.10
2018-05-25T16:08:30.969Z,1.20
2018-05-25T16:10:59.838Z,0.90
2018-05-25T16:13:27.938Z,1.37
2018-05-25T16:15:56.097Z,1.05
2018-05-25T16:18:24.227Z,1.27
2018-05-25T16:20:52.373Z,1.10
2018-05-25T16:23:20.487Z,1.02
2018-05-25T16:25:48.613Z,1.23
2018-05-25T16:28:16.722Z,1.30
2018-05-25T16:30:45.619Z,1.30
2018-05-25T16:33:14.515Z,0.95
2018-05-25T16:35:43.395Z,1.00
2018-05-25T16:38:12.274Z,1.25
2018-05-25T16:40:40.405Z,1.00
2018-05-25T16:43:08.531Z,1.00
2018-05-25T16:45:36.654Z,1.00
2018-05-25T16:48:04.782Z,1.40
2018-05-25T16:50:32.895Z,1.25
2018-05-25T16:53:01.007Z,1.50
2018-05-25T16:55:29.132Z,1.00
2018-05-25T16:57:58.063Z,1.15
2018-05-25T17:00:26.180Z,1.30
2018-05-25T17:02:54.705Z,1.40
2018-05-25T17:05:23.584Z,1.30
2018-05-25T17:07:52.477Z,1.45
2018-05-25T17:10:21.359Z,1.50
2018-05-25T17:12:49.531Z,1.58
2018-05-25T17:15:17.600Z,1.40
2018-05-25T17:17:45.727Z,1.58
2018-05-25T17:20:13.845Z,1.67
2018-05-25T17:22:41.982Z,1.77
2018-05-25T17:25:10.153Z,1.87
2018-05-25T17:27:38.667Z,1.75
2018-05-25T17:30:07.549Z,1.80
2018-05-25T17:32:35.677Z,1.90
2018-05-25T17:35:03.813Z,1.83
2018-05-25T17:37:31.932Z,1.90
2018-05-25T17:40:00.090Z,1.77
2018-05-25T17:42:28.218Z,2.00
2018-05-25T17:44:57.088Z,1.85
2018-05-25T17:47:25.218Z,1.70
2018-05-25T17:49:53.424Z,2.00
2018-05-25T17:52:21.588Z,1.98
2018-05-25T17:54:49.841Z,1.90
2018-05-25T17:57:17.960Z,2.00
2018-05-25T17:59:46.125Z,2.03
2018-05-25T18:02:14.329Z,1.95
2018-05-25T18:04:42.470Z,2.25
2018-05-25T18:07:10.585Z,1.60
2018-05-25T18:09:38.744Z,2.10
2018-05-25T18:12:06.893Z,1.87
2018-05-25T18:14:35.000Z,1.77
2018-05-25T18:17:03.902Z,2.10
2018-05-25T18:19:32.055Z,1.90
2018-05-25T18:22:00.205Z,1.73
2018-05-25T18:24:28.353Z,2.00
2018-05-25T18:26:56.471Z,1.98
2018-05-25T18:29:24.611Z,1.73
2018-05-25T18:31:52.771Z,1.52
2018-05-25T18:34:20.927Z,1.83
2018-05-25T18:36:49.848Z,2.03
2018-05-25T18:39:17.987Z,1.98
2018-05-25T18:41:46.139Z,2.20
2018-05-25T18:44:15.060Z,1.80
2018-05-25T18:46:43.202Z,1.80
2018-05-25T18:49:12.116Z,1.77
2018-05-25T18:51:40.234Z,1.67
2018-05-25T18:54:26.180Z,1.67
2018-05-25T18:56:54.333Z,1.50
2018-05-25T18:59:22.454Z,1.73
2018-05-25T19:01:50.650Z,1.70
2018-05-25T19:04:18.942Z,1.60
2018-05-25T19:06:47.878Z,1.92
2018-05-25T19:09:16.753Z,1.90
2018-05-25T19:11:44.898Z,1.67
2018-05-25T19:14:13.050Z,1.85
2018-05-25T19:16:41.208Z,1.67
2018-05-25T19:19:09.357Z,1.55
2018-05-25T19:21:37.524Z,2.00
2018-05-25T19:24:05.676Z,2.03
2018-05-25T19:26:33.851Z,1.58
2018-05-25T19:29:02.010Z,1.73
2018-05-25T19:31:30.172Z,1.58
2018-05-25T19:33:59.087Z,1.50
2018-05-25T19:36:27.230Z,1.90
2018-05-25T19:38:55.446Z,1.95
2018-05-25T19:41:23.579Z,2.08
2018-05-25T19:43:51.753Z,1.75
2018-05-25T19:46:19.918Z,1.98
2018-05-25T19:48:48.058Z,1.87
2018-05-25T19:51:16.213Z,1.77
2018-05-25T19:53:45.108Z,1.85
2018-05-25T19:56:14.032Z,2.25
2018-05-25T19:58:42.199Z,1.87
2018-05-25T20:01:10.362Z,1.98
2018-05-25T20:03:39.278Z,2.10
2018-05-25T20:06:07.405Z,2.60
2018-05-25T20:08:35.562Z,2.33
2018-05-25T20:11:03.724Z,2.50
2018-05-25T20:13:31.881Z,2.45
2018-05-25T20:16:00.039Z,2.62
2018-05-25T20:18:28.210Z,2.33
2018-05-25T20:20:57.155Z,2.25
2018-05-25T20:23:25.315Z,2.42
2018-05-25T20:25:53.447Z,2.20
2018-05-25T20:28:21.602Z,2.50
2018-05-25T20:30:49.745Z,2.78
2018-05-25T20:33:17.893Z,2.80
2018-05-25T20:35:46.050Z,2.60
2018-05-25T20:38:14.195Z,2.53
2018-05-25T20:40:42.369Z,2.03
2018-05-25T20:43:10.517Z,2.15
2018-05-25T20:45:39.458Z,2.50
2018-05-25T20:48:07.640Z,2.40
2018-05-25T20:50:35.799Z,2.40
2018-05-25T20:53:03.956Z,2.22
2018-05-25T20:55:32.858Z,2.42
2018-05-25T20:58:01.022Z,2.28
2018-05-25T21:00:29.916Z,2.00
2018-05-25T21:02:58.101Z,2.40
2018-05-25T21:05:26.999Z,2.20
2018-05-25T21:07:55.912Z,2.28
2018-05-25T21:10:24.056Z,2.30
2018-05-25T21:12:52.290Z,2.33
2018-05-25T21:15:20.452Z,2.60
2018-05-25T21:17:48.690Z,2.12
2018-05-25T21:20:16.813Z,2.28
2018-05-25T21:22:44.950Z,2.53
2018-05-25T21:25:13.092Z,2.70
2018-05-25T21:27:41.206Z,2.28
2018-05-25T21:30:10.185Z,2.60
2018-05-25T21:32:38.311Z,2.65
2018-05-25T21:35:06.455Z,2.22
2018-05-25T21:37:35.351Z,2.20
2018-05-25T21:40:04.294Z,2.20
2018-05-25T21:42:32.463Z,2.72
2018-05-25T21:45:00.610Z,2.10
2018-05-25T21:47:29.528Z,2.25
2018-05-25T21:49:57.674Z,2.45
2018-05-25T21:52:25.842Z,2.40
2018-05-25T21:54:53.989Z,2.67
2018-05-25T21:57:22.147Z,2.80
2018-05-25T21:59:50.289Z,2.45
2018-05-25T22:02:18.416Z,2.90
2018-05-25T22:04:46.562Z,2.70
2018-05-25T22:07:15.459Z,2.42
2018-05-25T22:09:44.378Z,2.58
2018-05-25T22:12:13.281Z,2.52
2018-05-25T22:14:41.422Z,2.45
2018-05-25T22:17:10.313Z,2.50
2018-05-25T22:19:39.231Z,2.90
2018-05-25T22:22:07.369Z,3.10
2018-05-25T22:24:35.524Z,2.75
2018-05-25T22:27:03.657Z,2.60
2018-05-25T22:29:31.810Z,2.87
2018-05-25T22:31:59.987Z,2.83
2018-05-25T22:34:28.141Z,2.40
2018-05-25T22:36:56.282Z,2.87
2018-05-25T22:39:24.435Z,2.37
2018-05-25T22:41:55.856Z,2.50
2018-05-25T22:44:41.881Z,2.37
2018-05-25T22:47:28.665Z,2.95
2018-05-25T22:50:14.868Z,2.62
2018-05-25T22:52:48.578Z,2.65
2018-05-25T22:55:17.485Z,3.03
2018-05-25T22:57:45.627Z,2.97
2018-05-25T23:00:13.804Z,3.00
2018-05-25T23:02:41.928Z,3.00
2018-05-25T23:05:10.085Z,2.70
2018-05-25T23:07:39.002Z,2.35
2018-05-25T23:10:07.153Z,3.00
2018-05-25T23:12:36.042Z,2.95
2018-05-25T23:15:04.989Z,3.20
2018-05-25T23:17:33.136Z,2.97
2018-05-25T23:20:01.282Z,2.83
2018-05-25T23:22:29.434Z,2.75
2018-05-25T23:24:57.594Z,3.03
2018-05-25T23:27:25.733Z,2.92
2018-05-25T23:29:54.620Z,3.10
2018-05-25T23:32:23.893Z,2.75
2018-05-25T23:34:52.027Z,3.28
2018-05-25T23:37:20.169Z,2.62
2018-05-25T23:39:49.101Z,3.22
2018-05-25T23:42:17.243Z,2.85
2018-05-25T23:44:46.154Z,2.85
2018-05-25T23:47:15.030Z,3.00
2018-05-25T23:49:43.945Z,2.80
2018-05-25T23:52:12.851Z,3.35
2018-05-25T23:54:41.010Z,3.22
2018-05-25T23:57:09.906Z,2.80
2018-05-25T23:59:38.827Z,4.00
